createdAt,value
2023-03-14T00:01:36.654Z,3.30
2023-03-14T00:04:05.763Z,3.80
2023-03-14T00:06:35.656Z,3.90
2023-03-14T00:09:04.174Z,4.00
2023-03-14T00:11:32.882Z,4.40
2023-03-14T00:14:01.299Z,3.30
2023-03-14T00:16:29.622Z,3.30
2023-03-14T00:19:00.446Z,3.60
2023-03-14T00:21:29.078Z,4.00
2023-03-14T00:23:57.392Z,3.70
2023-03-14T00:26:26.073Z,3.70
2023-03-14T00:28:54.995Z,2.80
2023-03-14T00:31:24.264Z,3.10
2023-03-14T00:33:54.340Z,3.20
2023-03-14T00:36:23.677Z,3.70
2023-03-14T00:38:53.137Z,3.40
2023-03-14T00:41:24.245Z,3.30
2023-03-14T00:43:52.936Z,3.20
2023-03-14T00:46:22.095Z,3.80
2023-03-14T00:48:50.316Z,3.40
2023-03-14T00:51:18.756Z,3.00
2023-03-14T00:53:47.133Z,3.30
2023-03-14T00:56:15.373Z,3.50
2023-03-14T00:58:43.887Z,3.50
2023-03-14T01:01:19.348Z,3.50
2023-03-14T01:06:26.102Z,3.10
2023-03-14T01:08:55.419Z,3.50
2023-03-14T01:11:34.066Z,3.10
2023-03-14T01:14:02.831Z,3.00
2023-03-14T01:16:34.449Z,3.30
2023-03-14T01:19:04.097Z,3.70
2023-03-14T01:21:34.832Z,3.80
2023-03-14T01:24:05.459Z,3.20
2023-03-14T01:26:36.081Z,3.50
2023-03-14T01:29:05.192Z,3.60
2023-03-14T01:31:34.746Z,3.70
2023-03-14T01:34:03.096Z,4.00
2023-03-14T01:36:31.942Z,4.50
2023-03-14T01:39:02.168Z,3.20
2023-03-14T01:41:30.887Z,4.10
2023-03-14T01:44:00.237Z,3.30
2023-03-14T01:46:34.269Z,4.10
2023-03-14T01:49:05.621Z,3.70
2023-03-14T01:51:52.804Z,3.80
2023-03-14T01:54:36.583Z,4.50
2023-03-14T01:57:11.887Z,3.80
2023-03-14T01:59:41.883Z,3.70
2023-03-14T02:02:13.618Z,3.40
2023-03-14T02:04:42.852Z,4.00
2023-03-14T02:07:26.236Z,3.50
2023-03-14T02:10:07.681Z,3.80
2023-03-14T02:12:37.455Z,3.60
2023-03-14T02:15:22.706Z,3.60
2023-03-14T02:18:15.828Z,4.20
2023-03-14T02:21:39.145Z,4.10
2023-03-14T02:24:18.399Z,3.80
2023-03-14T02:27:05.896Z,3.50
2023-03-14T02:29:38.706Z,4.00
2023-03-14T02:32:08.613Z,3.40
2023-03-14T02:34:37.412Z,4.00
2023-03-14T02:37:06.816Z,3.60
2023-03-14T02:39:42.865Z,3.80
2023-03-14T02:42:14.365Z,3.40
2023-03-14T02:44:55.878Z,4.20
2023-03-14T02:47:29.963Z,3.50
2023-03-14T02:50:09.265Z,3.80
2023-03-14T02:52:37.848Z,3.50
2023-03-14T02:55:06.715Z,3.80
2023-03-14T02:57:35.628Z,3.60
2023-03-14T03:00:07.434Z,3.80
2023-03-14T03:02:37.661Z,3.50
2023-03-14T03:05:06.382Z,3.60
2023-03-14T03:07:34.758Z,4.30
2023-03-14T03:10:04.215Z,3.60
2023-03-14T03:12:32.419Z,4.00
2023-03-14T03:15:00.628Z,3.70
2023-03-14T03:17:29.098Z,3.60
2023-03-14T03:19:57.384Z,3.70
2023-03-14T03:22:25.616Z,3.40
2023-03-14T03:24:53.880Z,3.50
2023-03-14T03:27:22.146Z,3.50
2023-03-14T03:29:50.343Z,3.30
2023-03-14T03:32:18.834Z,3.40
2023-03-14T03:34:47.237Z,3.70
2023-03-14T03:37:15.392Z,3.80
2023-03-14T03:39:43.857Z,3.10
2023-03-14T03:42:14.057Z,3.10
2023-03-14T03:44:42.375Z,3.20
2023-03-14T03:47:11.246Z,3.20
2023-03-14T03:49:39.618Z,3.40
2023-03-14T03:52:11.245Z,3.40
2023-03-14T03:54:39.571Z,3.10
2023-03-14T03:57:07.818Z,3.50
2023-03-14T03:59:36.396Z,3.10
2023-03-14T04:02:04.629Z,3.00
2023-03-14T04:04:33.144Z,3.70
2023-03-14T04:07:03.345Z,3.10
2023-03-14T04:09:32.096Z,3.60
2023-03-14T04:12:27.536Z,3.10
2023-03-14T04:14:59.949Z,3.70
2023-03-14T04:17:28.247Z,3.50
2023-03-14T04:19:56.484Z,4.30
2023-03-14T04:22:31.949Z,3.30
2023-03-14T04:25:03.412Z,3.30
2023-03-14T04:27:34.239Z,3.90
2023-03-14T04:30:04.234Z,2.80
2023-03-14T04:32:55.832Z,2.90
2023-03-14T04:35:26.376Z,3.20
2023-03-14T04:38:01.267Z,2.70
2023-03-14T04:40:31.817Z,2.90
2023-03-14T04:43:04.345Z,3.20
2023-03-14T04:45:32.813Z,3.10
2023-03-14T04:48:02.980Z,3.50
2023-03-14T04:50:31.855Z,3.70
2023-03-14T04:53:00.211Z,3.60
2023-03-14T04:55:28.955Z,2.80
2023-03-14T04:57:58.213Z,3.40
2023-03-14T05:00:26.697Z,2.90
2023-03-14T05:03:16.238Z,3.50
2023-03-14T05:06:07.345Z,3.10
2023-03-14T05:09:01.228Z,3.30
2023-03-14T05:11:38.404Z,2.70
2023-03-14T05:14:35.855Z,3.10
2023-03-14T05:17:10.036Z,3.40
2023-03-14T05:19:38.367Z,3.30
2023-03-14T05:22:32.794Z,3.70
2023-03-14T05:25:33.359Z,3.60
2023-03-14T05:28:15.116Z,2.80
2023-03-14T05:31:02.313Z,3.30
2023-03-14T05:33:46.573Z,3.50
2023-03-14T05:36:36.426Z,3.90
2023-03-14T05:39:22.335Z,3.70
2023-03-14T05:42:10.066Z,3.40
2023-03-14T05:44:53.475Z,3.30
2023-03-14T05:47:36.992Z,3.20
2023-03-14T05:50:24.191Z,3.60
2023-03-14T05:53:15.560Z,3.40
2023-03-14T05:55:43.719Z,3.30
2023-03-14T05:58:20.256Z,3.60
2023-03-14T06:01:12.188Z,3.50
2023-03-14T06:03:54.693Z,3.10
2023-03-14T06:06:23.193Z,3.50
2023-03-14T06:08:51.741Z,3.60
2023-03-14T06:11:20.144Z,3.60
2023-03-14T06:13:48.535Z,3.90
2023-03-14T06:16:16.925Z,4.10
2023-03-14T06:18:47.921Z,4.00
2023-03-14T06:21:19.247Z,4.40
2023-03-14T06:23:48.308Z,3.80
2023-03-14T06:26:16.924Z,3.70
2023-03-14T06:28:45.358Z,3.90
2023-03-14T06:31:14.028Z,4.20
2023-03-14T06:33:52.344Z,3.50
2023-03-14T06:36:20.884Z,7.20
2023-03-14T06:38:49.773Z,13.20
2023-03-14T06:41:18.644Z,5.10
2023-03-14T06:43:48.767Z,4.20
2023-03-14T06:46:17.456Z,3.50
2023-03-14T06:48:46.035Z,3.60
2023-03-14T06:51:14.483Z,5.10
2023-03-14T06:53:42.883Z,4.60
2023-03-14T06:56:11.781Z,4.70
2023-03-14T06:58:40.178Z,4.90
2023-03-14T07:01:29.319Z,5.10
2023-03-14T07:04:03.788Z,5.60
2023-03-14T07:06:33.969Z,5.60
2023-03-14T07:09:03.798Z,7.60
2023-03-14T07:11:32.774Z,7.10
2023-03-14T07:14:01.815Z,8.40
2023-03-14T07:16:32.576Z,7.10
2023-03-14T07:19:02.407Z,5.10
2023-03-14T07:21:33.002Z,4.50
2023-03-14T07:24:01.623Z,3.60
2023-03-14T07:26:29.943Z,3.00
2023-03-14T07:28:58.425Z,3.60
2023-03-14T07:31:26.850Z,3.70
2023-03-14T07:33:55.302Z,3.60
2023-03-14T07:36:24.746Z,3.00
2023-03-14T07:38:53.735Z,3.50
2023-03-14T07:41:31.373Z,3.10
2023-03-14T07:44:18.321Z,3.10
2023-03-14T07:46:46.675Z,3.30
2023-03-14T07:49:14.976Z,3.30
2023-03-14T07:51:45.043Z,2.90
2023-03-14T07:54:13.201Z,3.80
2023-03-14T07:56:42.004Z,3.10
2023-03-14T07:59:10.486Z,3.50
2023-03-14T08:01:39.013Z,4.30
2023-03-14T08:04:07.553Z,3.70
2023-03-14T08:06:39.116Z,3.40
2023-03-14T08:09:07.525Z,3.50
2023-03-14T08:11:35.939Z,3.00
2023-03-14T08:14:04.371Z,2.90
2023-03-14T08:16:32.901Z,3.50
2023-03-14T08:19:01.465Z,3.00
2023-03-14T08:21:31.903Z,3.70
2023-03-14T08:24:00.148Z,3.10
2023-03-14T08:26:31.901Z,3.90
2023-03-14T08:29:00.381Z,3.60
2023-03-14T08:31:28.863Z,3.50
2023-03-14T08:34:00.432Z,3.30
2023-03-14T08:36:28.973Z,4.40
2023-03-14T08:38:57.973Z,4.10
2023-03-14T08:41:26.306Z,23.50
2023-03-14T08:43:54.735Z,6.30
2023-03-14T08:46:23.187Z,8.20
2023-03-14T08:48:51.533Z,4.30
2023-03-14T08:51:20.010Z,3.80
2023-03-14T08:53:48.232Z,4.80
2023-03-14T08:56:16.580Z,7.70
2023-03-14T08:58:45.074Z,12.10
2023-03-14T09:01:13.710Z,18.70
2023-03-14T09:03:42.132Z,18.90
2023-03-14T09:06:11.418Z,5.70
2023-03-14T09:08:40.020Z,11.90
2023-03-14T09:11:09.966Z,15.40
2023-03-14T09:13:38.856Z,7.60
2023-03-14T09:16:08.807Z,5.20
2023-03-14T09:18:37.364Z,4.40
2023-03-14T09:21:06.479Z,3.60
2023-03-14T09:23:34.850Z,3.90
2023-03-14T09:26:03.247Z,5.00
2023-03-14T09:28:31.572Z,3.60
2023-03-14T09:31:07.098Z,3.30
2023-03-14T09:33:36.460Z,3.50
2023-03-14T09:36:05.900Z,3.30
2023-03-14T09:38:34.675Z,2.80
2023-03-14T09:41:13.243Z,2.80
2023-03-14T09:43:47.977Z,3.00
2023-03-14T09:46:16.819Z,2.80
2023-03-14T09:48:45.207Z,2.30
2023-03-14T09:51:20.210Z,3.30
2023-03-14T09:53:50.674Z,2.90
2023-03-14T09:56:26.827Z,3.40
2023-03-14T09:59:01.600Z,4.40
2023-03-14T10:04:11.726Z,10.90
2023-03-14T10:06:40.081Z,8.50
2023-03-14T10:09:18.464Z,4.50
2023-03-14T10:11:46.985Z,7.50
2023-03-14T10:14:31.218Z,10.40
2023-03-14T10:17:11.131Z,13.00
2023-03-14T10:19:54.062Z,10.80
2023-03-14T10:22:25.971Z,11.90
2023-03-14T10:24:58.096Z,9.40
2023-03-14T10:27:32.015Z,5.60
2023-03-14T10:30:04.692Z,6.50
2023-03-14T10:32:39.166Z,5.50
2023-03-14T10:37:59.860Z,5.00
2023-03-14T10:40:32.505Z,4.30
2023-03-14T10:43:04.814Z,3.50
2023-03-14T10:45:44.741Z,22.40
2023-03-14T10:48:20.181Z,9.20
2023-03-14T10:50:57.084Z,3.50
2023-03-14T10:53:27.624Z,4.90
2023-03-14T10:55:59.242Z,4.20
2023-03-14T10:58:31.801Z,6.60
2023-03-14T11:01:01.420Z,4.70
2023-03-14T11:03:33.796Z,19.10
2023-03-14T11:06:44.439Z,8.40
2023-03-14T11:09:49.619Z,11.90
2023-03-14T11:12:51.460Z,15.20
2023-03-14T11:15:38.290Z,7.80
2023-03-14T11:18:43.159Z,10.60
2023-03-14T11:21:47.267Z,7.80
2023-03-14T11:25:02.969Z,21.40
2023-03-14T11:30:55.942Z,5.70
2023-03-14T11:33:39.498Z,5.80
2023-03-14T11:36:11.201Z,5.10
2023-03-14T11:38:50.337Z,3.60
2023-03-14T11:41:25.064Z,3.80
2023-03-14T11:43:57.208Z,3.60
2023-03-14T11:46:48.288Z,3.30
2023-03-14T11:49:31.577Z,3.30
2023-03-14T11:52:10.882Z,3.20
2023-03-14T11:54:51.001Z,3.20
2023-03-14T11:57:23.906Z,4.20
2023-03-14T12:00:10.979Z,3.80
2023-03-14T12:03:06.191Z,4.50
2023-03-14T12:06:04.974Z,5.00
2023-03-14T12:08:55.352Z,4.00
2023-03-14T12:11:33.331Z,5.70
2023-03-14T12:14:02.524Z,4.50
2023-03-14T12:16:36.064Z,3.90
2023-03-14T12:19:25.416Z,3.50
2023-03-14T12:22:08.713Z,3.30
2023-03-14T12:24:39.776Z,9.90
2023-03-14T12:27:14.801Z,9.50
2023-03-14T12:30:11.476Z,11.90
2023-03-14T12:32:39.800Z,7.00
2023-03-14T12:35:35.674Z,18.30
2023-03-14T12:38:22.790Z,13.10
2023-03-14T12:41:29.167Z,5.10
2023-03-14T12:43:57.804Z,10.10
2023-03-14T12:46:28.537Z,13.00
2023-03-14T12:49:08.661Z,16.60
2023-03-14T12:51:44.738Z,8.40
2023-03-14T12:54:36.790Z,10.80
2023-03-14T12:57:37.320Z,18.40
2023-03-14T13:01:18.378Z,5.90
2023-03-14T13:03:46.963Z,4.10
2023-03-14T13:06:47.480Z,5.50
2023-03-14T13:09:34.797Z,10.40
2023-03-14T13:12:25.584Z,9.60
2023-03-14T13:14:55.553Z,6.60
2023-03-14T13:17:37.328Z,7.30
2023-03-14T13:20:27.537Z,8.40
2023-03-14T13:22:56.029Z,9.40
2023-03-14T13:25:27.890Z,7.90
2023-03-14T13:28:00.113Z,10.00
2023-03-14T13:30:47.856Z,8.90
2023-03-14T13:33:19.811Z,6.50
2023-03-14T13:36:04.721Z,9.30
2023-03-14T13:38:39.933Z,8.90
2023-03-14T13:41:19.929Z,9.30
2023-03-14T13:44:07.671Z,7.20
2023-03-14T13:46:38.664Z,6.10
2023-03-14T13:49:27.448Z,7.90
2023-03-14T13:52:38.656Z,6.70
2023-03-14T13:55:26.342Z,5.80
2023-03-14T13:57:58.242Z,6.10
2023-03-14T14:00:31.536Z,4.20
2023-03-14T14:03:12.988Z,4.30
2023-03-14T14:05:56.846Z,4.30
2023-03-14T14:08:47.748Z,4.10
2023-03-14T14:11:48.886Z,4.20
2023-03-14T14:15:11.191Z,5.10
2023-03-14T14:18:07.839Z,4.70
2023-03-14T14:20:57.248Z,5.50
2023-03-14T14:23:33.510Z,4.90
2023-03-14T14:26:46.164Z,7.30
2023-03-14T14:29:34.352Z,4.60
2023-03-14T14:32:09.004Z,5.50
2023-03-14T14:35:04.357Z,4.20
2023-03-14T14:37:36.039Z,3.90
2023-03-14T14:40:11.770Z,5.00
2023-03-14T14:42:42.893Z,3.90
2023-03-14T14:45:17.835Z,4.70
2023-03-14T14:48:23.502Z,59.20
2023-03-14T14:51:09.619Z,83.00
2023-03-14T14:53:44.953Z,18.10
2023-03-14T14:56:29.836Z,18.40
2023-03-14T14:59:05.965Z,17.50
2023-03-14T15:01:43.329Z,17.20
2023-03-14T15:04:15.150Z,11.10
2023-03-14T15:06:46.173Z,13.50
2023-03-14T15:09:14.999Z,10.20
2023-03-14T15:12:09.038Z,9.00
2023-03-14T15:14:37.307Z,8.00
2023-03-14T15:17:10.331Z,8.80
2023-03-14T15:19:40.077Z,10.30
2023-03-14T15:22:15.527Z,11.00
2023-03-14T15:24:43.886Z,10.10
2023-03-14T15:27:17.951Z,8.50
2023-03-14T15:29:46.273Z,11.30
2023-03-14T15:32:17.546Z,11.40
2023-03-14T15:34:45.887Z,8.00
2023-03-14T15:37:16.821Z,11.90
2023-03-14T15:39:45.094Z,12.80
2023-03-14T15:42:13.467Z,13.50
2023-03-14T15:44:41.732Z,10.50
2023-03-14T15:47:11.820Z,8.20
2023-03-14T15:49:39.976Z,9.40
2023-03-14T15:52:08.828Z,17.60
2023-03-14T15:54:37.046Z,12.80
2023-03-14T15:57:07.676Z,20.70
2023-03-14T15:59:36.473Z,15.90
2023-03-14T16:02:04.719Z,13.50
2023-03-14T16:04:32.951Z,16.90
2023-03-14T16:07:01.290Z,29.40
2023-03-14T16:09:29.670Z,24.00
2023-03-14T16:11:57.976Z,24.70
2023-03-14T16:14:26.396Z,27.30
2023-03-14T16:17:00.077Z,14.70
2023-03-14T16:19:32.500Z,18.80
2023-03-14T16:22:00.719Z,23.10
2023-03-14T16:24:31.354Z,37.90
2023-03-14T16:32:56.817Z,29.30
2023-03-14T16:35:25.441Z,22.70
2023-03-14T16:38:00.978Z,27.20
2023-03-14T16:45:06.202Z,19.60
2023-03-14T16:47:34.707Z,21.00
2023-03-14T16:50:03.423Z,17.10
2023-03-14T16:52:31.855Z,16.60
2023-03-14T16:55:00.323Z,20.00
2023-03-14T16:57:28.616Z,21.70
2023-03-14T16:59:56.824Z,18.70
2023-03-14T17:02:25.364Z,20.40
2023-03-14T17:04:53.722Z,22.30
2023-03-14T17:07:22.144Z,28.10
2023-03-14T17:09:54.686Z,28.70
2023-03-14T17:12:25.137Z,31.30
2023-03-14T17:14:53.999Z,33.90
2023-03-14T17:17:22.315Z,40.50
2023-03-14T17:19:50.567Z,37.10
2023-03-14T17:22:23.998Z,28.60
2023-03-14T17:24:54.574Z,24.40
2023-03-14T17:27:22.944Z,23.60
2023-03-14T17:29:51.185Z,20.90
2023-03-14T17:32:19.471Z,17.90
2023-03-14T17:34:47.815Z,20.00
2023-03-14T17:37:16.100Z,24.60
2023-03-14T17:39:44.366Z,21.00
2023-03-14T17:42:12.869Z,24.90
2023-03-14T17:44:42.033Z,21.00
2023-03-14T17:47:11.158Z,17.60
2023-03-14T17:49:40.640Z,18.40
2023-03-14T17:52:12.886Z,30.00
2023-03-14T17:54:41.557Z,24.30
2023-03-14T17:57:09.801Z,15.70
2023-03-14T17:59:38.196Z,11.80
2023-03-14T18:02:06.965Z,12.10
2023-03-14T18:04:35.710Z,11.70
2023-03-14T18:07:04.515Z,11.20
2023-03-14T18:09:32.849Z,11.90
2023-03-14T18:12:07.528Z,11.30
2023-03-14T18:14:37.335Z,11.80
2023-03-14T18:17:05.994Z,11.90
2023-03-14T18:19:34.238Z,13.50
2023-03-14T18:22:02.564Z,14.00
2023-03-14T18:24:30.937Z,13.90
2023-03-14T18:26:59.593Z,13.40
2023-03-14T18:29:27.908Z,13.50
2023-03-14T18:31:58.354Z,14.00
2023-03-14T18:34:27.056Z,12.30
2023-03-14T18:36:55.667Z,14.60
2023-03-14T18:39:23.957Z,13.60
2023-03-14T18:41:52.233Z,13.90
2023-03-14T18:44:21.422Z,14.20
2023-03-14T18:46:49.812Z,14.70
2023-03-14T18:49:19.120Z,13.30
2023-03-14T18:51:49.255Z,11.90
2023-03-14T18:54:17.556Z,12.20
2023-03-14T18:56:46.388Z,12.60
2023-03-14T18:59:14.766Z,11.20
2023-03-14T19:01:43.255Z,10.80
2023-03-14T19:04:11.940Z,11.30
2023-03-14T19:06:41.717Z,14.20
2023-03-14T19:09:15.351Z,12.60
2023-03-14T19:11:44.733Z,10.20
2023-03-14T19:14:16.061Z,10.10
2023-03-14T19:16:45.007Z,9.50
2023-03-14T19:19:13.700Z,10.60
2023-03-14T19:21:41.993Z,14.80
2023-03-14T19:24:16.828Z,10.80
2023-03-14T19:26:45.188Z,11.80
2023-03-14T19:29:13.538Z,14.20
2023-03-14T19:31:42.013Z,13.60
2023-03-14T19:34:10.296Z,25.30
2023-03-14T19:36:38.671Z,46.30
2023-03-14T19:39:07.003Z,36.00
2023-03-14T19:41:35.894Z,24.00
2023-03-14T19:44:05.750Z,24.50
2023-03-14T19:46:36.113Z,16.40
2023-03-14T19:49:05.865Z,13.30
2023-03-14T19:51:35.774Z,15.10
2023-03-14T19:54:06.197Z,19.70
2023-03-14T19:56:34.804Z,21.00
2023-03-14T19:59:06.052Z,18.20
2023-03-14T20:01:35.265Z,13.20
2023-03-14T20:04:04.556Z,14.10
2023-03-14T20:06:34.720Z,14.30
2023-03-14T20:09:05.763Z,15.50
2023-03-14T20:11:35.553Z,15.00
2023-03-14T20:14:03.982Z,13.00
2023-03-14T20:16:36.057Z,13.20
2023-03-14T20:19:09.611Z,11.50
2023-03-14T20:21:37.976Z,13.20
2023-03-14T20:24:06.666Z,12.30
2023-03-14T20:26:35.341Z,20.80
2023-03-14T20:29:03.554Z,22.80
2023-03-14T20:31:31.779Z,18.50
2023-03-14T20:34:00.228Z,17.40
2023-03-14T20:36:28.547Z,15.60
2023-03-14T20:38:56.965Z,18.60
2023-03-14T20:41:25.339Z,13.00
2023-03-14T20:43:53.635Z,18.10
2023-03-14T20:46:22.128Z,16.40
2023-03-14T20:48:50.414Z,11.50
2023-03-14T20:51:18.803Z,11.90
2023-03-14T20:53:47.519Z,12.70
2023-03-14T20:56:16.157Z,12.10
2023-03-14T20:58:45.777Z,14.40
2023-03-14T21:01:14.517Z,8.90
2023-03-14T21:03:43.370Z,9.70
2023-03-14T21:06:12.917Z,12.70
2023-03-14T21:08:42.691Z,13.90
2023-03-14T21:11:11.002Z,6.40
2023-03-14T21:13:39.298Z,6.30
2023-03-14T21:16:07.923Z,5.70
2023-03-14T21:18:36.204Z,8.30
2023-03-14T21:21:04.720Z,9.20
2023-03-14T21:23:34.630Z,10.90
2023-03-14T21:26:02.953Z,13.40
2023-03-14T21:28:31.283Z,11.50
2023-03-14T21:31:11.864Z,9.80
2023-03-14T21:33:40.222Z,9.00
2023-03-14T21:36:08.885Z,8.10
2023-03-14T21:38:37.167Z,7.30
2023-03-14T21:41:07.700Z,10.10
2023-03-14T21:43:36.024Z,9.40
2023-03-14T21:46:04.474Z,10.20
2023-03-14T21:48:34.153Z,11.00
2023-03-14T21:51:06.079Z,18.40
2023-03-14T21:53:34.986Z,10.90
2023-03-14T21:56:03.368Z,9.00
2023-03-14T21:58:31.717Z,10.00
2023-03-14T22:01:06.818Z,9.00
2023-03-14T22:03:35.326Z,13.20
2023-03-14T22:06:03.718Z,11.30
2023-03-14T22:08:32.019Z,11.20
2023-03-14T22:11:00.305Z,11.10
2023-03-14T22:13:28.501Z,12.10
2023-03-14T22:15:56.919Z,12.50
2023-03-14T22:18:25.477Z,12.90
2023-03-14T22:20:53.693Z,15.20
2023-03-14T22:23:21.922Z,12.20
2023-03-14T22:25:50.344Z,11.10
2023-03-14T22:28:19.368Z,11.50
2023-03-14T22:30:52.057Z,7.60
2023-03-14T22:33:20.636Z,10.00
2023-03-14T22:35:50.705Z,8.40
2023-03-14T22:38:19.239Z,9.30
2023-03-14T22:40:48.308Z,10.70
2023-03-14T22:43:17.165Z,12.50
2023-03-14T22:45:45.655Z,12.30
2023-03-14T22:48:15.402Z,13.20
2023-03-14T22:50:43.800Z,12.70
2023-03-14T22:53:12.225Z,12.20
2023-03-14T22:55:40.522Z,12.00
2023-03-14T22:58:09.605Z,11.70
2023-03-14T23:00:38.709Z,11.30
2023-03-14T23:03:07.008Z,10.80
2023-03-14T23:05:35.286Z,8.50
2023-03-14T23:08:03.555Z,8.50
2023-03-14T23:10:33.192Z,7.60
2023-03-14T23:13:01.569Z,8.10
2023-03-14T23:15:29.823Z,7.60
2023-03-14T23:17:58.496Z,5.20
2023-03-14T23:20:29.797Z,4.50
2023-03-14T23:22:58.071Z,3.80
2023-03-14T23:25:26.556Z,4.80
2023-03-14T23:27:54.837Z,5.20
2023-03-14T23:30:23.175Z,5.30
2023-03-14T23:32:51.492Z,5.10
2023-03-14T23:35:19.781Z,4.00
2023-03-14T23:37:49.984Z,4.60
2023-03-14T23:40:18.699Z,3.60
2023-03-14T23:42:48.822Z,3.30
2023-03-14T23:45:17.154Z,3.30
2023-03-14T23:47:45.482Z,2.80
2023-03-14T23:50:13.758Z,3.10
2023-03-14T23:52:42.084Z,3.00
2023-03-14T23:55:10.823Z,3.30
2023-03-14T23:57:39.154Z,3.00
